sensor_id;sensor_type;location;lat;lon;timestamp;pressure;altitude;pressure_sealevel;temperature;humidity
58739;BME280;44512;53.046;18.604;2023-01-10T00:00:55;100740.45;;;7.12;74.94
58739;BME280;44512;53.046;18.604;2023-01-10T00:11:24;100753.74;;;7.14;74.30
58739;BME280;44512;53.046;18.604;2023-01-10T00:21:52;100764.66;;;7.12;73.71
58739;BME280;44512;53.046;18.604;2023-01-10T00:32:21;100778.84;;;7.06;73.06
58739;BME280;44512;53.046;18.604;2023-01-10T00:42:49;100795.70;;;7.00;72.59
58739;BME280;44512;53.046;18.604;2023-01-10T00:53:17;100806.33;;;6.93;72.30
58739;BME280;44512;53.046;18.604;2023-01-10T01:03:46;100825.69;;;6.89;72.07
58739;BME280;44512;53.046;18.604;2023-01-10T01:14:14;100836.97;;;6.84;71.74
58739;BME280;44512;53.046;18.604;2023-01-10T01:24:43;100852.28;;;6.75;71.40
58739;BME280;44512;53.046;18.604;2023-01-10T01:35:13;100855.34;;;6.64;71.30
58739;BME280;44512;53.046;18.604;2023-01-10T01:45:40;100863.74;;;6.61;71.08
58739;BME280;44512;53.046;18.604;2023-01-10T02:06:37;100879.57;;;6.40;71.13
58739;BME280;44512;53.046;18.604;2023-01-10T02:17:08;100896.40;;;6.17;71.87
58739;BME280;44512;53.046;18.604;2023-01-10T02:38:12;100933.31;;;5.99;72.73
58739;BME280;44512;53.046;18.604;2023-01-10T02:48:31;100950.07;;;5.85;73.03
58739;BME280;44512;53.046;18.604;2023-01-10T03:09:34;100978.21;;;5.64;73.12
58739;BME280;44512;53.046;18.604;2023-01-10T03:19:58;100984.05;;;5.60;73.26
58739;BME280;44512;53.046;18.604;2023-01-10T03:41:01;101011.40;;;5.55;72.99
58739;BME280;44512;53.046;18.604;2023-01-10T03:51:21;101011.88;;;5.51;73.13
58739;BME280;44512;53.046;18.604;2023-01-10T04:01:49;101038.27;;;5.63;72.72
58739;BME280;44512;53.046;18.604;2023-01-10T04:12:17;101034.61;;;5.64;72.42
58739;BME280;44512;53.046;18.604;2023-01-10T04:22:46;101059.75;;;5.63;72.34
58739;BME280;44512;53.046;18.604;2023-01-10T04:33:14;101084.20;;;5.52;72.23
58739;BME280;44512;53.046;18.604;2023-01-10T04:43:43;101107.16;;;5.46;72.28
58739;BME280;44512;53.046;18.604;2023-01-10T04:54:11;101116.51;;;5.42;72.40
58739;BME280;44512;53.046;18.604;2023-01-10T05:04:40;101131.78;;;5.42;72.46
58739;BME280;44512;53.046;18.604;2023-01-10T05:15:09;101147.96;;;5.50;72.26
58739;BME280;44512;53.046;18.604;2023-01-10T05:25:36;101158.23;;;5.55;71.93
58739;BME280;44512;53.046;18.604;2023-01-10T05:36:05;101182.87;;;5.50;71.89
58739;BME280;44512;53.046;18.604;2023-01-10T05:46:33;101211.40;;;5.51;71.75
58739;BME280;44512;53.046;18.604;2023-01-10T05:57:01;101231.20;;;5.50;71.45
58739;BME280;44512;53.046;18.604;2023-01-10T06:07:30;101246.77;;;5.46;71.35
58739;BME280;44512;53.046;18.604;2023-01-10T06:17:58;101262.37;;;5.43;71.37
58739;BME280;44512;53.046;18.604;2023-01-10T06:28:27;101283.13;;;5.41;71.26
58739;BME280;44512;53.046;18.604;2023-01-10T06:38:55;101295.49;;;5.34;71.19
58739;BME280;44512;53.046;18.604;2023-01-10T06:49:23;101316.86;;;5.26;71.25
58739;BME280;44512;53.046;18.604;2023-01-10T06:59:52;101343.31;;;5.20;71.59
58739;BME280;44512;53.046;18.604;2023-01-10T07:10:20;101365.17;;;5.26;71.54
58739;BME280;44512;53.046;18.604;2023-01-10T07:20:49;101375.39;;;5.22;71.66
58739;BME280;44512;53.046;18.604;2023-01-10T07:31:19;101394.50;;;5.09;72.09
58739;BME280;44512;53.046;18.604;2023-01-10T07:41:46;101404.64;;;5.15;72.22
58739;BME280;44512;53.046;18.604;2023-01-10T07:52:14;101413.09;;;5.20;72.34
58739;BME280;44512;53.046;18.604;2023-01-10T08:02:43;101430.30;;;5.28;72.46
58739;BME280;44512;53.046;18.604;2023-01-10T08:13:11;101433.27;;;5.25;72.63
58739;BME280;44512;53.046;18.604;2023-01-10T08:23:39;101457.16;;;5.28;72.68
58739;BME280;44512;53.046;18.604;2023-01-10T08:34:08;101476.38;;;5.23;72.67
58739;BME280;44512;53.046;18.604;2023-01-10T08:44:37;101489.37;;;5.28;72.84
58739;BME280;44512;53.046;18.604;2023-01-10T08:55:06;101507.56;;;5.34;72.76
58739;BME280;44512;53.046;18.604;2023-01-10T09:05:33;101511.65;;;5.38;72.76
58739;BME280;44512;53.046;18.604;2023-01-10T09:16:02;101535.09;;;5.36;72.55
58739;BME280;44512;53.046;18.604;2023-01-10T09:26:30;101542.15;;;5.37;72.55
58739;BME280;44512;53.046;18.604;2023-01-10T09:52:35;101541.11;;;5.47;72.50
58739;BME280;44512;53.046;18.604;2023-01-10T10:03:02;101554.83;;;5.54;72.51
58739;BME280;44512;53.046;18.604;2023-01-10T10:44:58;101571.80;;;5.45;73.29
58739;BME280;44512;53.046;18.604;2023-01-10T10:55:30;101582.38;;;5.46;73.47
58739;BME280;44512;53.046;18.604;2023-01-10T11:05:51;101596.53;;;5.48;73.68
58739;BME280;44512;53.046;18.604;2023-01-10T11:26:48;101607.54;;;5.55;73.85
58739;BME280;44512;53.046;18.604;2023-01-10T11:37:24;101629.70;;;5.57;74.05
58739;BME280;44512;53.046;18.604;2023-01-10T11:47:51;101631.12;;;5.61;74.19
58739;BME280;44512;53.046;18.604;2023-01-10T11:58:13;101648.91;;;5.62;74.36
58739;BME280;44512;53.046;18.604;2023-01-10T12:08:41;101658.95;;;5.70;74.55
58739;BME280;44512;53.046;18.604;2023-01-10T12:19:11;101657.52;;;5.75;74.79
58739;BME280;44512;53.046;18.604;2023-01-10T12:50:39;101691.25;;;5.88;75.45
58739;BME280;44512;53.046;18.604;2023-01-10T13:01:04;101690.70;;;5.94;75.63
58739;BME280;44512;53.046;18.604;2023-01-10T13:11:39;101701.42;;;6.04;75.73
58739;BME280;44512;53.046;18.604;2023-01-10T13:32:32;101731.08;;;6.21;75.84
58739;BME280;44512;53.046;18.604;2023-01-10T14:03:55;101766.84;;;6.32;75.74
58739;BME280;44512;53.046;18.604;2023-01-10T14:14:28;101779.98;;;6.35;75.83
58739;BME280;44512;53.046;18.604;2023-01-10T14:24:51;101805.59;;;6.39;75.86
58739;BME280;44512;53.046;18.604;2023-01-10T14:35:26;101810.81;;;6.40;75.83
58739;BME280;44512;53.046;18.604;2023-01-10T14:45:59;101832.33;;;6.40;75.96
58739;BME280;44512;53.046;18.604;2023-01-10T14:56:18;101846.49;;;6.42;76.04
58739;BME280;44512;53.046;18.604;2023-01-10T15:06:52;101847.03;;;6.46;76.06
58739;BME280;44512;53.046;18.604;2023-01-10T15:17:16;101846.47;;;6.52;76.06
58739;BME280;44512;53.046;18.604;2023-01-10T15:27:45;101871.08;;;6.57;76.04
58739;BME280;44512;53.046;18.604;2023-01-10T15:38:18;101879.70;;;6.61;75.97
58739;BME280;44512;53.046;18.604;2023-01-10T15:48:40;101879.26;;;6.65;75.90
58739;BME280;44512;53.046;18.604;2023-01-10T16:09:35;101903.29;;;6.76;75.67
58739;BME280;44512;53.046;18.604;2023-01-10T16:20:05;101913.77;;;6.79;75.60
58739;BME280;44512;53.046;18.604;2023-01-10T16:30:33;101924.38;;;6.81;75.51
58739;BME280;44512;53.046;18.604;2023-01-10T16:41:02;101930.48;;;6.83;75.54
58739;BME280;44512;53.046;18.604;2023-01-10T16:51:29;101942.68;;;6.77;75.51
58739;BME280;44512;53.046;18.604;2023-01-10T17:01:58;101956.41;;;6.74;75.68
58739;BME280;44512;53.046;18.604;2023-01-10T17:12:31;101961.65;;;6.76;75.73
58739;BME280;44512;53.046;18.604;2023-01-10T17:22:56;101951.73;;;6.76;75.75
58739;BME280;44512;53.046;18.604;2023-01-10T17:33:24;101967.31;;;6.83;75.69
58739;BME280;44512;53.046;18.604;2023-01-10T17:43:52;101961.63;;;6.86;75.64
58739;BME280;44512;53.046;18.604;2023-01-10T17:54:20;101950.58;;;6.89;75.55
58739;BME280;44512;53.046;18.604;2023-01-10T18:04:48;101948.88;;;6.88;75.40
58739;BME280;44512;53.046;18.604;2023-01-10T18:15:17;101971.27;;;6.88;75.31
58739;BME280;44512;53.046;18.604;2023-01-10T18:36:17;101977.51;;;6.79;75.23
58739;BME280;44512;53.046;18.604;2023-01-10T18:46:42;102004.16;;;6.72;75.41
58739;BME280;44512;53.046;18.604;2023-01-10T18:57:11;102005.28;;;6.70;75.47
58739;BME280;44512;53.046;18.604;2023-01-10T19:07:39;102007.70;;;6.73;75.57
58739;BME280;44512;53.046;18.604;2023-01-10T19:18:08;102021.41;;;6.79;75.55
58739;BME280;44512;53.046;18.604;2023-01-10T19:28:36;102030.48;;;6.78;75.46
58739;BME280;44512;53.046;18.604;2023-01-10T19:39:04;102036.14;;;6.75;75.29
58739;BME280;44512;53.046;18.604;2023-01-10T19:49:33;102036.73;;;6.69;75.38
58739;BME280;44512;53.046;18.604;2023-01-10T20:00:02;102042.53;;;6.74;75.53
58739;BME280;44512;53.046;18.604;2023-01-10T20:10:30;102042.37;;;6.76;75.43
58739;BME280;44512;53.046;18.604;2023-01-10T20:21:02;102057.67;;;6.75;75.26
58739;BME280;44512;53.046;18.604;2023-01-10T20:31:27;102051.02;;;6.70;75.22
58739;BME280;44512;53.046;18.604;2023-01-10T20:41:55;102059.52;;;6.65;75.14
58739;BME280;44512;53.046;18.604;2023-01-10T20:52:23;102051.45;;;6.65;75.20
58739;BME280;44512;53.046;18.604;2023-01-10T21:02:52;102048.33;;;6.70;75.24
58739;BME280;44512;53.046;18.604;2023-01-10T21:13:21;102028.48;;;6.81;75.01
58739;BME280;44512;53.046;18.604;2023-01-10T21:23:52;102037.83;;;6.86;74.63
58739;BME280;44512;53.046;18.604;2023-01-10T21:34:17;102029.76;;;6.86;74.44
58739;BME280;44512;53.046;18.604;2023-01-10T21:44:46;102040.40;;;6.88;74.30
58739;BME280;44512;53.046;18.604;2023-01-10T21:55:15;102043.79;;;6.80;74.14
58739;BME280;44512;53.046;18.604;2023-01-10T22:05:43;102025.10;;;6.78;74.22
58739;BME280;44512;53.046;18.604;2023-01-10T22:16:12;102025.80;;;6.71;74.21
58739;BME280;44512;53.046;18.604;2023-01-10T22:26:39;102040.68;;;6.65;74.21
58739;BME280;44512;53.046;18.604;2023-01-10T22:37:08;102038.57;;;6.59;74.24
58739;BME280;44512;53.046;18.604;2023-01-10T22:47:36;102040.26;;;6.60;74.23
58739;BME280;44512;53.046;18.604;2023-01-10T22:58:05;102055.70;;;6.58;73.96
58739;BME280;44512;53.046;18.604;2023-01-10T23:08:34;102047.48;;;6.50;74.21
58739;BME280;44512;53.046;18.604;2023-01-10T23:19:02;102040.68;;;6.46;74.25
58739;BME280;44512;53.046;18.604;2023-01-10T23:29:30;102043.80;;;6.61;74.21
58739;BME280;44512;53.046;18.604;2023-01-10T23:39:59;102033.04;;;6.70;73.94
58739;BME280;44512;53.046;18.604;2023-01-10T23:50:27;102030.77;;;6.75;73.72
